createdAt,value
2022-08-09T00:00:06.195Z,14.50
2022-08-09T00:02:42.847Z,14.50
2022-08-09T00:06:19.549Z,14.50
2022-08-09T00:08:10.677Z,14.40
2022-08-09T00:10:40.055Z,14.40
2022-08-09T00:13:16.793Z,14.40
2022-08-09T00:15:58.767Z,14.40
2022-08-09T00:18:30.557Z,14.30
2022-08-09T00:20:59.662Z,14.30
2022-08-09T00:23:57.368Z,14.20
2022-08-09T00:26:15.848Z,14.10
2022-08-09T00:28:52.341Z,14.10
2022-08-09T00:31:57.047Z,14.00
2022-08-09T00:34:11.179Z,14.00
2022-08-09T00:36:40.140Z,13.90
2022-08-09T00:39:16.798Z,13.90
2022-08-09T00:44:15.770Z,14.00
2022-08-09T00:44:46.933Z,13.80
2022-08-09T00:47:16.647Z,13.80
2022-08-09T00:49:54.618Z,13.70
2022-08-09T00:52:30.250Z,13.70
2022-08-09T00:55:01.224Z,13.60
2022-08-09T00:57:35.014Z,13.60
2022-08-09T01:00:21.859Z,13.60
2022-08-09T01:03:17.820Z,13.60
2022-08-09T01:05:54.604Z,13.60
2022-08-09T01:08:32.718Z,13.60
2022-08-09T01:11:24.596Z,13.40
2022-08-09T01:14:01.629Z,13.20
2022-08-09T01:16:35.966Z,13.30
2022-08-09T01:19:16.878Z,13.30
2022-08-09T01:22:16.695Z,13.60
2022-08-09T01:24:56.773Z,13.30
2022-08-09T01:27:29.125Z,13.20
2022-08-09T01:30:00.951Z,13.20
2022-08-09T01:32:35.100Z,13.10
2022-08-09T01:35:29.095Z,13.10
2022-08-09T01:38:07.684Z,13.10
2022-08-09T01:40:44.872Z,13.00
2022-08-09T01:43:24.274Z,13.00
2022-08-09T01:45:58.091Z,13.10
2022-08-09T01:48:29.605Z,13.00
2022-08-09T01:51:00.263Z,12.90
2022-08-09T01:53:40.914Z,12.90
2022-08-09T01:56:11.397Z,12.80
2022-08-09T01:58:43.669Z,12.80
2022-08-09T02:01:18.477Z,12.80
2022-08-09T02:03:48.073Z,12.80
2022-08-09T02:06:17.670Z,12.80
2022-08-09T02:08:59.021Z,12.80
2022-08-09T02:11:42.055Z,12.80
2022-08-09T02:14:26.348Z,12.80
2022-08-09T02:17:15.485Z,12.70
2022-08-09T02:19:46.108Z,12.60
2022-08-09T02:22:31.838Z,12.60
2022-08-09T02:25:08.673Z,12.80
2022-08-09T02:27:57.504Z,12.70
2022-08-09T02:30:32.679Z,12.70
2022-08-09T02:33:03.029Z,12.70
2022-08-09T02:36:03.432Z,12.60
2022-08-09T02:38:31.558Z,12.60
2022-08-09T02:41:04.140Z,12.60
2022-08-09T02:43:47.724Z,12.60
2022-08-09T02:46:28.602Z,12.60
2022-08-09T02:49:02.841Z,12.60
2022-08-09T02:51:40.299Z,12.60
2022-08-09T02:54:12.368Z,12.60
2022-08-09T02:56:51.048Z,12.60
2022-08-09T02:59:26.557Z,12.60
2022-08-09T03:02:11.913Z,12.50
2022-08-09T03:04:47.034Z,12.50
2022-08-09T03:07:20.941Z,12.50
2022-08-09T03:09:54.225Z,12.50
2022-08-09T03:12:26.595Z,12.50
2022-08-09T03:14:55.688Z,12.40
2022-08-09T03:17:26.974Z,12.40
2022-08-09T03:20:03.295Z,12.30
2022-08-09T03:22:41.875Z,12.30
2022-08-09T03:25:26.973Z,12.20
2022-08-09T03:28:03.726Z,12.20
2022-08-09T03:30:34.256Z,12.20
2022-08-09T03:33:16.806Z,12.20
2022-08-09T03:36:15.757Z,12.20
2022-08-09T03:38:41.862Z,12.20
2022-08-09T03:41:15.367Z,12.10
2022-08-09T03:44:03.777Z,12.10
2022-08-09T03:46:33.962Z,12.10
2022-08-09T03:49:09.045Z,12.10
2022-08-09T03:51:55.142Z,12.10
2022-08-09T03:54:29.721Z,12.00
2022-08-09T03:57:00.301Z,12.00
2022-08-09T03:59:43.270Z,11.90
2022-08-09T04:02:19.970Z,11.80
2022-08-09T04:04:58.642Z,11.80
2022-08-09T04:07:47.488Z,11.80
2022-08-09T04:10:18.350Z,11.80
2022-08-09T04:12:50.888Z,11.80
2022-08-09T04:15:39.107Z,11.70
2022-08-09T04:18:16.544Z,11.80
2022-08-09T04:20:47.522Z,11.80
2022-08-09T04:23:17.328Z,11.80
2022-08-09T04:25:52.195Z,11.80
2022-08-09T04:28:33.300Z,11.80
2022-08-09T04:31:09.297Z,11.90
2022-08-09T04:33:47.141Z,11.90
2022-08-09T04:36:23.283Z,11.90
2022-08-09T04:38:52.797Z,11.90
2022-08-09T04:41:23.669Z,11.90
2022-08-09T04:44:04.964Z,12.00
2022-08-09T04:46:37.792Z,12.00
2022-08-09T04:49:40.103Z,12.10
2022-08-09T04:52:12.039Z,12.10
2022-08-09T04:54:48.051Z,12.20
2022-08-09T04:57:16.133Z,12.20
2022-08-09T04:59:52.077Z,12.20
2022-08-09T05:02:20.495Z,12.20
2022-08-09T05:04:48.649Z,12.30
2022-08-09T05:07:29.230Z,12.40
2022-08-09T05:10:01.211Z,12.50
2022-08-09T05:12:31.198Z,12.80
2022-08-09T05:15:03.270Z,13.00
2022-08-09T05:18:57.679Z,13.50
2022-08-09T05:20:21.173Z,14.00
2022-08-09T05:23:55.319Z,14.50
2022-08-09T05:25:51.075Z,14.90
2022-08-09T05:28:20.087Z,15.30
2022-08-09T05:30:51.585Z,15.80
2022-08-09T05:33:20.305Z,16.20
2022-08-09T05:36:01.916Z,16.50
2022-08-09T05:38:31.585Z,16.80
2022-08-09T05:40:59.671Z,17.20
2022-08-09T05:43:31.739Z,17.80
2022-08-09T05:46:00.452Z,18.40
2022-08-09T05:48:33.209Z,18.80
2022-08-09T05:51:43.007Z,19.40
2022-08-09T05:53:57.511Z,19.90
2022-08-09T05:56:28.267Z,20.60
2022-08-09T05:58:59.054Z,21.00
2022-08-09T06:01:34.162Z,21.70
2022-08-09T06:04:12.358Z,22.20
2022-08-09T06:06:46.799Z,22.90
2022-08-09T06:09:54.944Z,23.20
2022-08-09T06:12:08.185Z,23.70
2022-08-09T06:14:37.219Z,24.00
2022-08-09T06:17:09.410Z,24.10
2022-08-09T06:19:38.393Z,24.50
2022-08-09T06:22:15.416Z,24.80
2022-08-09T06:24:45.118Z,24.70
2022-08-09T06:27:15.699Z,24.90
2022-08-09T06:29:47.898Z,25.00
2022-08-09T06:32:58.740Z,24.80
2022-08-09T06:35:15.262Z,24.80
2022-08-09T06:37:50.868Z,25.10
2022-08-09T06:40:33.430Z,25.30
2022-08-09T06:43:02.231Z,25.90
2022-08-09T06:46:05.101Z,26.30
2022-08-09T06:48:30.696Z,26.90
2022-08-09T06:50:59.939Z,27.70
2022-08-09T06:53:33.308Z,28.20
2022-08-09T06:56:09.755Z,28.40
2022-08-09T07:00:47.597Z,28.70
2022-08-09T07:01:35.505Z,28.90
2022-08-09T07:04:04.409Z,28.70
2022-08-09T07:06:32.967Z,28.50
2022-08-09T07:09:02.690Z,28.70
2022-08-09T07:11:34.259Z,28.90
2022-08-09T07:14:26.371Z,29.30
2022-08-09T07:16:58.249Z,29.50
2022-08-09T07:19:26.601Z,29.50
2022-08-09T07:21:58.770Z,29.80
2022-08-09T07:24:32.773Z,30.50
2022-08-09T07:27:27.451Z,30.80
2022-08-09T07:29:59.992Z,30.90
2022-08-09T07:32:32.424Z,30.80
2022-08-09T07:35:10.080Z,31.00
2022-08-09T07:37:43.637Z,30.90
2022-08-09T07:40:16.957Z,31.00
2022-08-09T07:42:54.172Z,31.30
2022-08-09T07:45:39.813Z,31.60
2022-08-09T07:48:25.868Z,31.90
2022-08-09T07:51:10.243Z,31.80
2022-08-09T07:54:04.897Z,32.20
2022-08-09T07:56:34.872Z,32.80
2022-08-09T07:59:14.114Z,33.00
2022-08-09T08:01:53.341Z,33.00
2022-08-09T08:04:25.511Z,32.70
2022-08-09T08:07:15.217Z,32.90
2022-08-09T08:09:55.251Z,33.00
2022-08-09T08:12:43.442Z,33.70
2022-08-09T08:15:17.279Z,34.00
2022-08-09T08:17:54.927Z,33.60
2022-08-09T08:20:28.759Z,33.10
2022-08-09T08:23:03.727Z,33.40
2022-08-09T08:25:46.597Z,33.50
2022-08-09T08:28:18.221Z,33.20
2022-08-09T08:30:55.980Z,33.30
2022-08-09T08:33:24.702Z,33.10
2022-08-09T08:35:59.165Z,32.70
2022-08-09T08:38:29.261Z,32.50
2022-08-09T08:40:58.276Z,32.60
2022-08-09T08:43:27.684Z,33.00
2022-08-09T08:46:31.946Z,33.20
2022-08-09T08:48:54.634Z,33.40
2022-08-09T08:51:23.419Z,33.60
2022-08-09T08:54:03.515Z,33.80
2022-08-09T08:56:36.298Z,34.10
2022-08-09T08:59:19.926Z,33.90
2022-08-09T09:01:54.754Z,33.80
2022-08-09T09:04:29.828Z,33.60
2022-08-09T09:07:09.105Z,33.60
2022-08-09T09:09:58.581Z,34.00
2022-08-09T09:12:35.472Z,33.90
2022-08-09T09:15:06.477Z,34.30
2022-08-09T09:17:48.558Z,34.40
2022-08-09T09:20:17.741Z,34.40
2022-08-09T09:22:54.081Z,34.40
2022-08-09T09:26:03.744Z,34.70
2022-08-09T09:29:02.136Z,34.70
2022-08-09T09:31:17.507Z,34.00
2022-08-09T09:34:15.317Z,33.90
2022-08-09T09:36:53.685Z,33.80
2022-08-09T09:39:25.553Z,33.30
2022-08-09T09:42:25.518Z,33.40
2022-08-09T09:44:58.988Z,33.90
2022-08-09T09:47:28.434Z,33.70
2022-08-09T09:50:15.105Z,33.30
2022-08-09T09:52:53.667Z,33.10
2022-08-09T09:55:31.970Z,32.60
2022-08-09T09:58:16.498Z,32.50
2022-08-09T10:00:52.466Z,32.80
2022-08-09T10:03:42.588Z,32.90
2022-08-09T10:06:13.519Z,33.00
2022-08-09T10:08:43.186Z,33.00
2022-08-09T10:11:59.488Z,33.10
2022-08-09T10:14:30.835Z,33.10
2022-08-09T10:17:38.761Z,33.20
2022-08-09T10:19:59.822Z,33.30
2022-08-09T10:22:39.330Z,32.30
2022-08-09T10:25:12.494Z,32.60
2022-08-09T10:27:55.943Z,33.00
2022-08-09T10:34:05.282Z,32.50
2022-08-09T10:36:09.401Z,32.30
2022-08-09T10:38:56.224Z,31.90
2022-08-09T10:41:28.489Z,31.90
2022-08-09T10:43:59.287Z,32.10
2022-08-09T10:47:00.574Z,32.80
2022-08-09T10:49:50.441Z,33.30
2022-08-09T10:52:35.558Z,33.40
2022-08-09T10:55:25.121Z,33.90
2022-08-09T10:57:55.953Z,34.10
2022-08-09T11:00:41.851Z,34.20
2022-08-09T11:03:46.731Z,33.90
2022-08-09T11:06:23.478Z,33.90
2022-08-09T11:08:53.365Z,34.00
2022-08-09T11:11:24.048Z,33.80
2022-08-09T11:14:32.048Z,33.30
2022-08-09T11:17:00.966Z,32.90
2022-08-09T11:20:11.228Z,32.60
2022-08-09T11:23:07.132Z,32.80
2022-08-09T11:25:48.654Z,32.90
2022-08-09T11:28:54.420Z,33.30
2022-08-09T11:31:49.118Z,33.50
2022-08-09T11:34:30.919Z,33.70
2022-08-09T11:37:01.558Z,33.40
2022-08-09T11:39:38.098Z,33.60
2022-08-09T11:42:14.889Z,33.90
2022-08-09T11:44:49.047Z,34.40
2022-08-09T11:47:17.540Z,34.90
2022-08-09T11:50:53.869Z,35.20
2022-08-09T11:54:01.074Z,35.20
2022-08-09T11:56:34.396Z,34.70
2022-08-09T11:59:29.849Z,34.90
2022-08-09T12:02:18.186Z,35.30
2022-08-09T12:04:58.238Z,34.40
2022-08-09T12:07:41.666Z,34.40
2022-08-09T12:10:14.160Z,34.70
2022-08-09T12:13:03.844Z,33.90
2022-08-09T12:15:52.152Z,33.70
2022-08-09T12:18:29.753Z,34.00
2022-08-09T12:20:59.306Z,34.50
2022-08-09T12:23:56.513Z,34.70
2022-08-09T12:26:25.709Z,35.00
2022-08-09T12:29:11.902Z,35.10
2022-08-09T12:31:58.917Z,34.20
2022-08-09T12:34:36.599Z,33.40
2022-08-09T12:37:09.498Z,33.00
2022-08-09T12:40:01.548Z,33.30
2022-08-09T12:42:30.846Z,33.80
2022-08-09T12:45:00.085Z,33.90
2022-08-09T12:47:37.153Z,33.90
2022-08-09T12:50:23.437Z,33.70
2022-08-09T12:53:17.891Z,33.20
2022-08-09T12:56:11.388Z,32.80
2022-08-09T12:58:29.769Z,32.50
2022-08-09T13:00:58.634Z,32.80
2022-08-09T13:03:57.074Z,33.00
2022-08-09T13:06:34.755Z,33.20
2022-08-09T13:09:11.188Z,33.70
2022-08-09T13:11:42.709Z,33.70
2022-08-09T13:14:42.563Z,33.80
2022-08-09T13:17:08.381Z,33.90
2022-08-09T13:20:08.970Z,34.00
2022-08-09T13:22:36.327Z,33.30
2022-08-09T13:25:17.817Z,32.70
2022-08-09T13:27:48.655Z,32.50
2022-08-09T13:30:50.980Z,32.60
2022-08-09T13:33:22.381Z,33.00
2022-08-09T13:36:39.458Z,33.40
2022-08-09T13:38:57.373Z,33.40
2022-08-09T13:41:58.511Z,32.90
2022-08-09T13:44:16.835Z,32.30
2022-08-09T13:47:28.901Z,32.30
2022-08-09T13:49:38.112Z,32.00
2022-08-09T13:52:24.712Z,31.80
2022-08-09T13:54:59.227Z,31.40
2022-08-09T13:57:35.798Z,31.50
2022-08-09T14:00:12.078Z,31.40
2022-08-09T14:03:04.650Z,31.00
2022-08-09T14:05:57.355Z,31.40
2022-08-09T14:08:22.893Z,31.60
2022-08-09T14:10:53.515Z,31.60
2022-08-09T14:14:14.896Z,31.90
2022-08-09T14:16:14.440Z,32.40
2022-08-09T14:18:49.294Z,32.60
2022-08-09T14:21:20.379Z,31.90
2022-08-09T14:23:54.042Z,31.70
2022-08-09T14:26:30.553Z,31.70
2022-08-09T14:29:07.793Z,31.70
2022-08-09T14:31:52.339Z,31.40
2022-08-09T14:34:27.495Z,31.40
2022-08-09T14:37:01.667Z,31.40
2022-08-09T14:39:47.537Z,31.10
2022-08-09T14:42:31.669Z,31.30
2022-08-09T14:46:39.590Z,31.60
2022-08-09T14:48:00.214Z,31.50
2022-08-09T14:50:32.611Z,31.60
2022-08-09T14:53:01.609Z,31.60
2022-08-09T14:55:32.230Z,31.50
2022-08-09T14:58:04.517Z,31.60
2022-08-09T15:00:36.194Z,31.30
2022-08-09T15:03:07.121Z,31.10
2022-08-09T15:05:36.766Z,31.00
2022-08-09T15:08:05.639Z,30.80
2022-08-09T15:10:35.152Z,30.80
2022-08-09T15:13:08.979Z,30.90
2022-08-09T15:15:38.841Z,31.00
2022-08-09T15:18:08.344Z,31.10
2022-08-09T15:21:55.921Z,31.40
2022-08-09T15:24:01.945Z,31.50
2022-08-09T15:26:31.428Z,31.60
2022-08-09T15:29:04.167Z,31.40
2022-08-09T15:31:40.835Z,30.60
2022-08-09T15:34:31.775Z,30.40
2022-08-09T15:37:01.135Z,30.40
2022-08-09T15:39:43.722Z,30.20
2022-08-09T15:42:21.806Z,30.00
2022-08-09T15:44:51.597Z,30.00
2022-08-09T15:47:22.274Z,29.90
2022-08-09T15:50:00.722Z,29.90
2022-08-09T15:52:33.118Z,30.10
2022-08-09T15:55:02.112Z,30.10
2022-08-09T15:57:51.510Z,30.30
2022-08-09T16:00:29.997Z,30.30
2022-08-09T16:03:02.448Z,30.30
2022-08-09T16:05:54.667Z,30.50
2022-08-09T16:08:30.875Z,30.60
2022-08-09T16:11:01.378Z,30.50
2022-08-09T16:14:04.709Z,30.30
2022-08-09T16:16:20.140Z,30.20
2022-08-09T16:18:54.381Z,30.10
2022-08-09T16:21:25.102Z,29.90
2022-08-09T16:23:55.985Z,29.70
2022-08-09T16:26:34.901Z,29.50
2022-08-09T16:29:10.719Z,29.50
2022-08-09T16:32:18.512Z,29.50
2022-08-09T16:34:44.820Z,29.60
2022-08-09T16:37:18.646Z,29.60
2022-08-09T16:39:54.730Z,29.60
2022-08-09T16:42:33.752Z,29.70
2022-08-09T16:45:02.159Z,29.70
2022-08-09T16:48:37.915Z,29.60
2022-08-09T16:50:32.337Z,29.50
2022-08-09T16:53:02.165Z,29.40
2022-08-09T16:55:57.843Z,29.30
2022-08-09T16:58:19.550Z,29.20
2022-08-09T17:00:49.650Z,29.40
2022-08-09T17:03:22.263Z,29.40
2022-08-09T17:06:08.046Z,29.20
2022-08-09T17:09:01.467Z,29.00
2022-08-09T17:11:40.871Z,28.90
2022-08-09T17:14:25.701Z,28.80
2022-08-09T17:16:59.856Z,28.80
2022-08-09T17:19:46.895Z,28.70
2022-08-09T17:22:24.051Z,28.70
2022-08-09T17:25:03.553Z,28.60
2022-08-09T17:27:33.457Z,28.40
2022-08-09T17:30:06.928Z,28.40
2022-08-09T17:32:45.470Z,28.30
2022-08-09T17:35:16.271Z,28.20
2022-08-09T17:38:11.581Z,28.10
2022-08-09T17:40:35.149Z,27.90
2022-08-09T17:43:32.272Z,27.70
2022-08-09T17:46:03.231Z,27.80
2022-08-09T17:48:35.336Z,27.80
2022-08-09T17:51:18.308Z,27.80
2022-08-09T17:53:53.635Z,27.70
2022-08-09T17:56:27.966Z,27.60
2022-08-09T17:58:59.623Z,27.50
2022-08-09T18:02:03.269Z,27.50
2022-08-09T18:04:17.928Z,27.40
2022-08-09T18:06:54.561Z,27.20
2022-08-09T18:09:25.103Z,27.20
2022-08-09T18:12:14.802Z,27.20
2022-08-09T18:14:49.619Z,27.10
2022-08-09T18:17:27.665Z,27.00
2022-08-09T18:20:57.010Z,26.90
2022-08-09T18:23:05.663Z,26.90
2022-08-09T18:25:51.219Z,26.70
2022-08-09T18:30:40.622Z,26.70
2022-08-09T18:31:10.583Z,26.60
2022-08-09T18:33:40.011Z,26.60
2022-08-09T18:36:14.317Z,26.50
2022-08-09T18:39:00.337Z,26.40
2022-08-09T18:41:35.053Z,26.30
2022-08-09T18:44:13.258Z,26.20
2022-08-09T18:46:49.337Z,26.10
2022-08-09T18:49:21.187Z,26.00
2022-08-09T18:51:55.255Z,25.90
2022-08-09T18:54:29.520Z,25.90
2022-08-09T18:57:05.907Z,25.70
2022-08-09T18:59:37.555Z,25.60
2022-08-09T19:02:20.800Z,25.50
2022-08-09T19:05:14.268Z,25.30
2022-08-09T19:08:03.902Z,25.30
2022-08-09T19:10:39.084Z,25.20
2022-08-09T19:13:22.890Z,25.10
2022-08-09T19:16:00.031Z,25.10
2022-08-09T19:18:33.524Z,24.90
2022-08-09T19:21:08.737Z,24.80
2022-08-09T19:24:32.134Z,24.80
2022-08-09T19:26:29.465Z,24.80
2022-08-09T19:29:03.109Z,24.70
2022-08-09T19:31:43.857Z,24.60
2022-08-09T19:34:18.272Z,24.40
2022-08-09T19:36:51.830Z,24.30
2022-08-09T19:39:20.340Z,24.00
2022-08-09T19:41:50.530Z,23.80
2022-08-09T19:44:22.890Z,23.50
2022-08-09T19:46:53.541Z,23.40
2022-08-09T19:50:07.061Z,23.20
2022-08-09T19:52:12.179Z,23.20
2022-08-09T19:54:40.773Z,23.10
2022-08-09T19:57:10.168Z,23.00
2022-08-09T19:59:57.725Z,22.90
2022-08-09T20:04:16.691Z,22.70
2022-08-09T20:05:16.926Z,22.70
2022-08-09T20:07:58.718Z,22.50
2022-08-09T20:10:36.485Z,22.50
2022-08-09T20:13:08.233Z,22.30
2022-08-09T20:16:34.090Z,22.10
2022-08-09T20:18:28.133Z,21.90
2022-08-09T20:20:57.183Z,21.70
2022-08-09T20:23:39.401Z,21.60
2022-08-09T20:26:09.843Z,21.40
2022-08-09T20:28:47.630Z,21.20
2022-08-09T20:31:16.451Z,21.10
2022-08-09T20:33:45.263Z,20.80
2022-08-09T20:36:13.731Z,20.60
2022-08-09T20:39:17.123Z,20.50
2022-08-09T20:41:34.743Z,20.40
2022-08-09T20:44:10.093Z,20.20
2022-08-09T20:46:43.885Z,20.10
2022-08-09T20:49:14.163Z,19.90
2022-08-09T20:51:45.010Z,19.80
2022-08-09T20:54:18.694Z,19.70
2022-08-09T20:56:49.654Z,19.60
2022-08-09T20:59:50.320Z,19.50
2022-08-09T21:02:17.627Z,19.30
2022-08-09T21:05:50.883Z,19.20
2022-08-09T21:07:40.404Z,19.10
2022-08-09T21:10:11.798Z,19.00
2022-08-09T21:12:40.094Z,18.90
2022-08-09T21:15:12.782Z,18.80
2022-08-09T21:18:23.476Z,18.70
2022-08-09T21:20:30.671Z,18.60
2022-08-09T21:23:00.326Z,18.40
2022-08-09T21:25:56.312Z,18.30
2022-08-09T21:28:33.266Z,18.20
2022-08-09T21:31:17.033Z,18.10
2022-08-09T21:33:50.944Z,18.10
2022-08-09T21:36:27.796Z,18.00
2022-08-09T21:38:58.647Z,18.00
2022-08-09T21:42:04.926Z,17.90
2022-08-09T21:44:33.090Z,17.90
2022-08-09T21:47:05.373Z,17.70
2022-08-09T21:49:40.560Z,17.70
2022-08-09T21:52:14.861Z,17.60
2022-08-09T21:54:49.729Z,17.60
2022-08-09T21:57:38.551Z,17.50
2022-08-09T22:00:25.937Z,17.40
2022-08-09T22:02:58.155Z,17.40
2022-08-09T22:05:37.721Z,17.30
2022-08-09T22:08:14.650Z,17.20
2022-08-09T22:11:49.772Z,17.10
2022-08-09T22:13:34.590Z,17.10
2022-08-09T22:16:04.915Z,17.00
2022-08-09T22:18:38.445Z,17.00
2022-08-09T22:21:22.107Z,17.00
2022-08-09T22:23:59.727Z,16.90
2022-08-09T22:26:34.936Z,16.90
2022-08-09T22:29:09.222Z,16.90
2022-08-09T22:31:50.561Z,17.00
2022-08-09T22:34:27.625Z,16.90
2022-08-09T22:36:56.470Z,16.80
2022-08-09T22:39:57.135Z,16.70
2022-08-09T22:42:21.529Z,16.70
2022-08-09T22:45:02.482Z,16.60
2022-08-09T22:48:18.556Z,16.50
2022-08-09T22:50:31.536Z,16.50
2022-08-09T22:53:03.779Z,16.40
2022-08-09T22:56:06.009Z,16.50
2022-08-09T22:58:32.340Z,16.30
2022-08-09T23:01:03.259Z,16.20
2022-08-09T23:04:03.721Z,16.20
2022-08-09T23:06:32.527Z,16.20
2022-08-09T23:09:05.170Z,16.20
2022-08-09T23:11:33.379Z,16.10
2022-08-09T23:14:02.806Z,16.00
2022-08-09T23:16:30.877Z,16.00
2022-08-09T23:18:59.036Z,15.90
2022-08-09T23:21:33.389Z,15.80
2022-08-09T23:24:05.585Z,15.80
2022-08-09T23:26:35.387Z,15.70
2022-08-09T23:29:03.833Z,15.80
2022-08-09T23:31:31.888Z,15.60
2022-08-09T23:34:00.017Z,15.50
2022-08-09T23:36:29.463Z,15.50
2022-08-09T23:38:57.573Z,15.40
2022-08-09T23:41:28.318Z,15.40
2022-08-09T23:43:57.961Z,15.40
2022-08-09T23:46:26.435Z,15.40
2022-08-09T23:48:54.498Z,15.40
2022-08-09T23:51:22.676Z,15.30
2022-08-09T23:53:55.112Z,15.20
2022-08-09T23:56:52.422Z,15.20
2022-08-09T23:59:12.338Z,15.10
